sensor_id;sensor_type;location;lat;lon;timestamp;pressure;altitude;pressure_sealevel;temperature;humidity
75594;BME280;64176;49.156;7.810;2023-08-01T00:00:03;98002.03;;;16.90;100.00
75594;BME280;64176;49.156;7.810;2023-08-01T00:02:55;98001.66;;;16.99;100.00
75594;BME280;64176;49.156;7.810;2023-08-01T00:05:40;97989.47;;;16.99;100.00
75594;BME280;64176;49.156;7.810;2023-08-01T00:08:28;97990.41;;;16.97;100.00
75594;BME280;64176;49.156;7.810;2023-08-01T00:11:12;97987.75;;;16.98;100.00
75594;BME280;64176;49.156;7.810;2023-08-01T00:13:58;97985.59;;;16.88;100.00
75594;BME280;64176;49.156;7.810;2023-08-01T00:16:42;97983.69;;;16.91;100.00
75594;BME280;64176;49.156;7.810;2023-08-01T00:19:27;97982.78;;;16.92;100.00
75594;BME280;64176;49.156;7.810;2023-08-01T00:22:11;97978.69;;;17.07;100.00
75594;BME280;64176;49.156;7.810;2023-08-01T00:24:55;97990.09;;;17.04;100.00
75594;BME280;64176;49.156;7.810;2023-08-01T00:27:39;97993.34;;;17.11;99.73
75594;BME280;64176;49.156;7.810;2023-08-01T00:30:23;97993.19;;;17.14;99.33
75594;BME280;64176;49.156;7.810;2023-08-01T00:33:07;97994.19;;;17.12;100.00
75594;BME280;64176;49.156;7.810;2023-08-01T00:35:53;97993.34;;;17.11;99.41
75594;BME280;64176;49.156;7.810;2023-08-01T00:38:38;97984.59;;;17.12;99.86
75594;BME280;64176;49.156;7.810;2023-08-01T00:41:22;97989.81;;;17.12;99.74
75594;BME280;64176;49.156;7.810;2023-08-01T00:44:06;97990.56;;;17.14;98.56
75594;BME280;64176;49.156;7.810;2023-08-01T00:46:52;97978.81;;;17.04;100.00
75594;BME280;64176;49.156;7.810;2023-08-01T00:49:39;97966.38;;;17.10;100.00
75594;BME280;64176;49.156;7.810;2023-08-01T00:52:26;97966.44;;;17.09;100.00
75594;BME280;64176;49.156;7.810;2023-08-01T00:55:11;97961.50;;;17.01;100.00
75594;BME280;64176;49.156;7.810;2023-08-01T00:57:56;97966.09;;;16.96;100.00
75594;BME280;64176;49.156;7.810;2023-08-01T01:00:40;97947.88;;;16.95;100.00
75594;BME280;64176;49.156;7.810;2023-08-01T01:03:26;97933.59;;;17.03;100.00
75594;BME280;64176;49.156;7.810;2023-08-01T01:06:14;97910.16;;;17.02;100.00
75594;BME280;64176;49.156;7.810;2023-08-01T01:09:02;97909.75;;;16.91;100.00
75594;BME280;64176;49.156;7.810;2023-08-01T01:11:48;97917.06;;;17.03;100.00
75594;BME280;64176;49.156;7.810;2023-08-01T01:14:35;97901.56;;;17.00;100.00
75594;BME280;64176;49.156;7.810;2023-08-01T01:17:21;97898.69;;;17.06;100.00
75594;BME280;64176;49.156;7.810;2023-08-01T01:20:06;97893.97;;;16.94;100.00
75594;BME280;64176;49.156;7.810;2023-08-01T01:22:54;97892.34;;;16.91;100.00
75594;BME280;64176;49.156;7.810;2023-08-01T01:25:39;97897.19;;;17.00;100.00
75594;BME280;64176;49.156;7.810;2023-08-01T01:28:26;97887.78;;;16.96;100.00
75594;BME280;64176;49.156;7.810;2023-08-01T01:31:10;97900.09;;;16.93;100.00
75594;BME280;64176;49.156;7.810;2023-08-01T01:33:55;97904.53;;;16.91;100.00
75594;BME280;64176;49.156;7.810;2023-08-01T01:36:39;97902.72;;;16.93;100.00
75594;BME280;64176;49.156;7.810;2023-08-01T01:39:23;97907.69;;;16.99;100.00
75594;BME280;64176;49.156;7.810;2023-08-01T01:42:08;97896.78;;;16.89;100.00
75594;BME280;64176;49.156;7.810;2023-08-01T01:44:52;97911.28;;;16.96;100.00
75594;BME280;64176;49.156;7.810;2023-08-01T01:47:39;97904.03;;;17.03;100.00
75594;BME280;64176;49.156;7.810;2023-08-01T01:50:23;97897.09;;;17.02;100.00
75594;BME280;64176;49.156;7.810;2023-08-01T01:53:07;97883.94;;;17.05;100.00
75594;BME280;64176;49.156;7.810;2023-08-01T01:55:53;97887.31;;;17.07;100.00
75594;BME280;64176;49.156;7.810;2023-08-01T01:58:37;97889.16;;;17.05;100.00
75594;BME280;64176;49.156;7.810;2023-08-01T02:01:21;97881.31;;;17.05;100.00
75594;BME280;64176;49.156;7.810;2023-08-01T02:04:06;97876.94;;;17.05;100.00
75594;BME280;64176;49.156;7.810;2023-08-01T02:06:50;97868.31;;;17.03;100.00
75594;BME280;64176;49.156;7.810;2023-08-01T02:09:37;97876.56;;;17.15;99.68
75594;BME280;64176;49.156;7.810;2023-08-01T02:12:21;97870.69;;;17.09;99.93
75594;BME280;64176;49.156;7.810;2023-08-01T02:15:05;97868.22;;;17.06;100.00
75594;BME280;64176;49.156;7.810;2023-08-01T02:17:50;97882.28;;;17.02;100.00
75594;BME280;64176;49.156;7.810;2023-08-01T02:20:34;97873.50;;;17.05;100.00
75594;BME280;64176;49.156;7.810;2023-08-01T02:23:17;97870.88;;;17.05;100.00
75594;BME280;64176;49.156;7.810;2023-08-01T02:26:02;97877.69;;;17.09;100.00
75594;BME280;64176;49.156;7.810;2023-08-01T02:28:47;97863.78;;;17.08;100.00
75594;BME280;64176;49.156;7.810;2023-08-01T02:31:30;97850.13;;;17.02;100.00
75594;BME280;64176;49.156;7.810;2023-08-01T02:34:14;97839.03;;;16.97;100.00
75594;BME280;64176;49.156;7.810;2023-08-01T02:36:58;97789.19;;;16.83;100.00
75594;BME280;64176;49.156;7.810;2023-08-01T02:39:42;97781.44;;;16.81;100.00
75594;BME280;64176;49.156;7.810;2023-08-01T02:42:26;97798.00;;;16.80;100.00
75594;BME280;64176;49.156;7.810;2023-08-01T02:45:12;97823.19;;;16.81;100.00
75594;BME280;64176;49.156;7.810;2023-08-01T02:48:01;97836.22;;;16.81;100.00
75594;BME280;64176;49.156;7.810;2023-08-01T02:50:45;97838.31;;;16.93;100.00
75594;BME280;64176;49.156;7.810;2023-08-01T02:53:32;97841.19;;;16.87;100.00
75594;BME280;64176;49.156;7.810;2023-08-01T02:56:16;97845.75;;;16.82;100.00
75594;BME280;64176;49.156;7.810;2023-08-01T02:59:00;97835.19;;;16.85;100.00
75594;BME280;64176;49.156;7.810;2023-08-01T03:01:44;97842.50;;;16.77;100.00
75594;BME280;64176;49.156;7.810;2023-08-01T03:04:32;97827.53;;;16.81;100.00
75594;BME280;64176;49.156;7.810;2023-08-01T03:07:17;97808.31;;;16.83;100.00
75594;BME280;64176;49.156;7.810;2023-08-01T03:10:01;97802.00;;;16.89;100.00
75594;BME280;64176;49.156;7.810;2023-08-01T03:12:45;97790.91;;;16.84;100.00
75594;BME280;64176;49.156;7.810;2023-08-01T03:15:29;97805.47;;;16.89;100.00
75594;BME280;64176;49.156;7.810;2023-08-01T03:18:14;97818.81;;;16.82;100.00
75594;BME280;64176;49.156;7.810;2023-08-01T03:20:58;97808.06;;;16.89;100.00
75594;BME280;64176;49.156;7.810;2023-08-01T03:23:42;97807.59;;;16.80;100.00
75594;BME280;64176;49.156;7.810;2023-08-01T03:26:26;97796.00;;;16.87;100.00
75594;BME280;64176;49.156;7.810;2023-08-01T03:29:13;97797.81;;;16.85;100.00
75594;BME280;64176;49.156;7.810;2023-08-01T03:31:57;97806.22;;;16.91;100.00
75594;BME280;64176;49.156;7.810;2023-08-01T03:34:43;97799.56;;;16.84;100.00
75594;BME280;64176;49.156;7.810;2023-08-01T03:37:27;97795.66;;;16.74;100.00
75594;BME280;64176;49.156;7.810;2023-08-01T03:40:11;97799.00;;;16.78;100.00
75594;BME280;64176;49.156;7.810;2023-08-01T03:42:55;97813.47;;;16.85;100.00
75594;BME280;64176;49.156;7.810;2023-08-01T03:45:39;97819.03;;;16.77;100.00
75594;BME280;64176;49.156;7.810;2023-08-01T03:48:23;97801.66;;;16.76;100.00
75594;BME280;64176;49.156;7.810;2023-08-01T03:51:07;97810.97;;;16.82;100.00
75594;BME280;64176;49.156;7.810;2023-08-01T03:53:51;97804.22;;;16.78;100.00
75594;BME280;64176;49.156;7.810;2023-08-01T03:56:36;97803.16;;;16.82;100.00
75594;BME280;64176;49.156;7.810;2023-08-01T03:59:25;97772.63;;;16.84;100.00
75594;BME280;64176;49.156;7.810;2023-08-01T04:02:10;97755.56;;;16.77;100.00
75594;BME280;64176;49.156;7.810;2023-08-01T04:04:54;97769.22;;;16.61;100.00
75594;BME280;64176;49.156;7.810;2023-08-01T04:07:38;97791.84;;;16.61;100.00
75594;BME280;64176;49.156;7.810;2023-08-01T04:10:22;97792.91;;;16.57;100.00
75594;BME280;64176;49.156;7.810;2023-08-01T04:13:06;97793.56;;;16.62;100.00
75594;BME280;64176;49.156;7.810;2023-08-01T04:15:50;97770.13;;;16.60;100.00
75594;BME280;64176;49.156;7.810;2023-08-01T04:18:37;97789.22;;;16.61;100.00
75594;BME280;64176;49.156;7.810;2023-08-01T04:21:21;97775.88;;;16.68;100.00
75594;BME280;64176;49.156;7.810;2023-08-01T04:24:05;97765.66;;;16.64;100.00
75594;BME280;64176;49.156;7.810;2023-08-01T04:26:48;97765.97;;;16.56;100.00
75594;BME280;64176;49.156;7.810;2023-08-01T04:29:32;97776.47;;;16.55;100.00
75594;BME280;64176;49.156;7.810;2023-08-01T04:32:16;97768.56;;;16.56;100.00
75594;BME280;64176;49.156;7.810;2023-08-01T04:35:00;97767.06;;;16.51;100.00
75594;BME280;64176;49.156;7.810;2023-08-01T04:37:44;97753.38;;;16.46;100.00
75594;BME280;64176;49.156;7.810;2023-08-01T04:40:31;97751.19;;;16.35;100.00
75594;BME280;64176;49.156;7.810;2023-08-01T04:43:15;97756.97;;;16.43;99.17
75594;BME280;64176;49.156;7.810;2023-08-01T04:45:59;97756.19;;;16.41;98.47
75594;BME280;64176;49.156;7.810;2023-08-01T04:48:43;97754.66;;;16.35;99.24
75594;BME280;64176;49.156;7.810;2023-08-01T04:51:27;97748.47;;;16.38;98.90
75594;BME280;64176;49.156;7.810;2023-08-01T04:54:11;97748.81;;;16.30;99.28
75594;BME280;64176;49.156;7.810;2023-08-01T04:56:55;97739.09;;;16.34;99.63
75594;BME280;64176;49.156;7.810;2023-08-01T04:59:39;97735.03;;;16.27;99.36
75594;BME280;64176;49.156;7.810;2023-08-01T05:02:25;97742.06;;;16.25;99.62
75594;BME280;64176;49.156;7.810;2023-08-01T05:05:10;97751.78;;;16.21;99.42
75594;BME280;64176;49.156;7.810;2023-08-01T05:07:56;97755.88;;;16.07;100.00
75594;BME280;64176;49.156;7.810;2023-08-01T05:10:40;97770.13;;;15.98;100.00
75594;BME280;64176;49.156;7.810;2023-08-01T05:13:25;97751.09;;;15.96;100.00
75594;BME280;64176;49.156;7.810;2023-08-01T05:16:08;97754.84;;;15.89;100.00
75594;BME280;64176;49.156;7.810;2023-08-01T05:18:52;97734.44;;;15.78;100.00
75594;BME280;64176;49.156;7.810;2023-08-01T05:21:36;97734.34;;;15.80;100.00
75594;BME280;64176;49.156;7.810;2023-08-01T05:24:20;97745.41;;;15.86;100.00
75594;BME280;64176;49.156;7.810;2023-08-01T05:27:05;97729.44;;;15.94;100.00
75594;BME280;64176;49.156;7.810;2023-08-01T05:29:49;97727.53;;;15.99;100.00
75594;BME280;64176;49.156;7.810;2023-08-01T05:32:33;97733.69;;;15.96;100.00
75594;BME280;64176;49.156;7.810;2023-08-01T05:35:17;97740.66;;;15.96;100.00
75594;BME280;64176;49.156;7.810;2023-08-01T05:38:01;97743.63;;;16.09;100.00
75594;BME280;64176;49.156;7.810;2023-08-01T05:40:48;97746.22;;;16.09;100.00
75594;BME280;64176;49.156;7.810;2023-08-01T05:43:31;97744.59;;;16.06;100.00
75594;BME280;64176;49.156;7.810;2023-08-01T05:46:15;97735.59;;;16.13;100.00
75594;BME280;64176;49.156;7.810;2023-08-01T05:49:02;97728.63;;;16.14;100.00
75594;BME280;64176;49.156;7.810;2023-08-01T05:51:48;97737.44;;;16.11;100.00
75594;BME280;64176;49.156;7.810;2023-08-01T05:54:32;97733.25;;;16.07;100.00
75594;BME280;64176;49.156;7.810;2023-08-01T05:57:17;97725.44;;;16.07;100.00
75594;BME280;64176;49.156;7.810;2023-08-01T06:00:03;97730.66;;;16.07;100.00
75594;BME280;64176;49.156;7.810;2023-08-01T06:02:56;97742.72;;;16.10;100.00
75594;BME280;64176;49.156;7.810;2023-08-01T06:05:40;97739.72;;;16.19;100.00
75594;BME280;64176;49.156;7.810;2023-08-01T06:08:24;97737.44;;;16.11;100.00
75594;BME280;64176;49.156;7.810;2023-08-01T06:11:08;97734.91;;;16.10;100.00
75594;BME280;64176;49.156;7.810;2023-08-01T06:13:52;97747.09;;;16.09;100.00
75594;BME280;64176;49.156;7.810;2023-08-01T06:16:39;97751.13;;;16.16;100.00
75594;BME280;64176;49.156;7.810;2023-08-01T06:19:22;97749.00;;;16.04;100.00
75594;BME280;64176;49.156;7.810;2023-08-01T06:22:06;97754.63;;;16.15;100.00
75594;BME280;64176;49.156;7.810;2023-08-01T06:24:50;97762.41;;;16.17;100.00
75594;BME280;64176;49.156;7.810;2023-08-01T06:27:37;97760.31;;;16.25;100.00
75594;BME280;64176;49.156;7.810;2023-08-01T06:30:24;97752.44;;;16.26;100.00
75594;BME280;64176;49.156;7.810;2023-08-01T06:33:11;97748.84;;;16.29;100.00
75594;BME280;64176;49.156;7.810;2023-08-01T06:35:55;97743.31;;;16.36;100.00
75594;BME280;64176;49.156;7.810;2023-08-01T06:38:39;97746.66;;;16.40;100.00
75594;BME280;64176;49.156;7.810;2023-08-01T06:41:23;97750.06;;;16.42;100.00
75594;BME280;64176;49.156;7.810;2023-08-01T06:44:09;97739.78;;;16.37;100.00
75594;BME280;64176;49.156;7.810;2023-08-01T06:46:53;97747.50;;;16.41;100.00
75594;BME280;64176;49.156;7.810;2023-08-01T06:49:37;97737.75;;;16.46;100.00
75594;BME280;64176;49.156;7.810;2023-08-01T06:52:23;97750.56;;;16.50;100.00
75594;BME280;64176;49.156;7.810;2023-08-01T06:55:07;97737.28;;;16.56;100.00
75594;BME280;64176;49.156;7.810;2023-08-01T06:57:52;97743.53;;;16.52;100.00
75594;BME280;64176;49.156;7.810;2023-08-01T07:00:38;97750.88;;;16.64;100.00
75594;BME280;64176;49.156;7.810;2023-08-01T07:03:22;97740.66;;;16.58;100.00
75594;BME280;64176;49.156;7.810;2023-08-01T07:06:08;97753.00;;;16.55;100.00
75594;BME280;64176;49.156;7.810;2023-08-01T07:08:54;97758.84;;;16.60;100.00
75594;BME280;64176;49.156;7.810;2023-08-01T07:11:38;97758.16;;;16.56;100.00
75594;BME280;64176;49.156;7.810;2023-08-01T07:14:22;97766.28;;;16.49;100.00
75594;BME280;64176;49.156;7.810;2023-08-01T07:17:08;97770.78;;;16.45;100.00
75594;BME280;64176;49.156;7.810;2023-08-01T07:19:52;97786.91;;;16.55;100.00
75594;BME280;64176;49.156;7.810;2023-08-01T07:22:37;97780.69;;;16.57;100.00
75594;BME280;64176;49.156;7.810;2023-08-01T07:25:21;97788.81;;;16.71;100.00
75594;BME280;64176;49.156;7.810;2023-08-01T07:28:06;97783.13;;;16.82;100.00
75594;BME280;64176;49.156;7.810;2023-08-01T07:31:04;97781.88;;;16.91;100.00
75594;BME280;64176;49.156;7.810;2023-08-01T07:33:49;97784.31;;;16.95;100.00
75594;BME280;64176;49.156;7.810;2023-08-01T07:36:33;97797.59;;;17.09;100.00
75594;BME280;64176;49.156;7.810;2023-08-01T07:39:22;97798.63;;;17.44;100.00
75594;BME280;64176;49.156;7.810;2023-08-01T07:42:06;97794.88;;;17.31;100.00
75594;BME280;64176;49.156;7.810;2023-08-01T07:44:52;97798.28;;;17.52;100.00
75594;BME280;64176;49.156;7.810;2023-08-01T07:47:37;97806.97;;;17.53;100.00
75594;BME280;64176;49.156;7.810;2023-08-01T07:50:21;97817.53;;;17.50;100.00
75594;BME280;64176;49.156;7.810;2023-08-01T07:53:05;97817.53;;;17.50;100.00
75594;BME280;64176;49.156;7.810;2023-08-01T07:55:51;97814.00;;;17.32;98.94
75594;BME280;64176;49.156;7.810;2023-08-01T07:58:36;97826.47;;;17.83;97.83
75594;BME280;64176;49.156;7.810;2023-08-01T08:01:20;97823.50;;;17.91;97.58
75594;BME280;64176;49.156;7.810;2023-08-01T08:04:04;97829.66;;;17.90;98.83
75594;BME280;64176;49.156;7.810;2023-08-01T08:06:48;97836.03;;;17.84;96.51
75594;BME280;64176;49.156;7.810;2023-08-01T08:09:32;97832.56;;;17.83;96.52
75594;BME280;64176;49.156;7.810;2023-08-01T08:12:16;97827.53;;;17.79;96.38
75594;BME280;64176;49.156;7.810;2023-08-01T08:15:05;97824.34;;;17.91;94.98
75594;BME280;64176;49.156;7.810;2023-08-01T08:17:49;97827.75;;;17.93;96.84
75594;BME280;64176;49.156;7.810;2023-08-01T08:20:41;97826.66;;;18.52;93.21
75594;BME280;64176;49.156;7.810;2023-08-01T08:23:26;97826.59;;;18.35;93.67
75594;BME280;64176;49.156;7.810;2023-08-01T08:26:10;97836.53;;;18.28;90.76
75594;BME280;64176;49.156;7.810;2023-08-01T08:28:54;97827.16;;;18.05;91.23
75594;BME280;64176;49.156;7.810;2023-08-01T08:31:40;97838.63;;;18.39;91.87
75594;BME280;64176;49.156;7.810;2023-08-01T08:34:24;97826.66;;;18.69;88.21
75594;BME280;64176;49.156;7.810;2023-08-01T08:37:11;97836.25;;;18.87;88.30
75594;BME280;64176;49.156;7.810;2023-08-01T08:39:55;97840.75;;;19.01;87.53
75594;BME280;64176;49.156;7.810;2023-08-01T08:42:39;97834.69;;;18.83;88.01
75594;BME280;64176;49.156;7.810;2023-08-01T08:45:23;97836.75;;;18.60;88.43
75594;BME280;64176;49.156;7.810;2023-08-01T08:48:12;97839.72;;;18.88;88.02
75594;BME280;64176;49.156;7.810;2023-08-01T08:50:57;97841.44;;;19.05;85.97
75594;BME280;64176;49.156;7.810;2023-08-01T08:53:44;97843.53;;;18.81;85.73
75594;BME280;64176;49.156;7.810;2023-08-01T08:56:29;97854.69;;;18.67;86.35
75594;BME280;64176;49.156;7.810;2023-08-01T08:59:13;97858.06;;;18.69;87.93
75594;BME280;64176;49.156;7.810;2023-08-01T09:01:57;97848.09;;;18.77;86.78
75594;BME280;64176;49.156;7.810;2023-08-01T09:04:41;97861.72;;;19.34;86.33
75594;BME280;64176;49.156;7.810;2023-08-01T09:07:29;97860.31;;;19.11;83.39
75594;BME280;64176;49.156;7.810;2023-08-01T09:10:13;97868.69;;;19.01;84.13
75594;BME280;64176;49.156;7.810;2023-08-01T09:12:57;97857.16;;;19.05;83.60
75594;BME280;64176;49.156;7.810;2023-08-01T09:15:41;97864.00;;;19.24;82.35
75594;BME280;64176;49.156;7.810;2023-08-01T09:18:28;97859.47;;;19.11;81.82
75594;BME280;64176;49.156;7.810;2023-08-01T09:21:17;97863.47;;;19.18;82.24
75594;BME280;64176;49.156;7.810;2023-08-01T09:24:15;97864.09;;;19.06;82.47
75594;BME280;64176;49.156;7.810;2023-08-01T09:27:03;97870.03;;;18.75;82.20
75594;BME280;64176;49.156;7.810;2023-08-01T09:29:52;97873.44;;;18.77;81.40
75594;BME280;64176;49.156;7.810;2023-08-01T09:32:36;97872.75;;;19.41;80.81
75594;BME280;64176;49.156;7.810;2023-08-01T09:35:23;97881.47;;;19.24;78.56
75594;BME280;64176;49.156;7.810;2023-08-01T09:38:07;97880.81;;;19.03;78.08
75594;BME280;64176;49.156;7.810;2023-08-01T09:40:51;97882.03;;;19.13;78.11
75594;BME280;64176;49.156;7.810;2023-08-01T09:43:36;97875.09;;;19.30;75.63
75594;BME280;64176;49.156;7.810;2023-08-01T09:46:20;97869.03;;;19.45;76.63
75594;BME280;64176;49.156;7.810;2023-08-01T09:49:11;97888.75;;;19.19;77.03
75594;BME280;64176;49.156;7.810;2023-08-01T09:51:56;97890.97;;;19.09;75.97
75594;BME280;64176;49.156;7.810;2023-08-01T09:54:43;97891.63;;;19.47;73.66
75594;BME280;64176;49.156;7.810;2023-08-01T09:57:30;97901.13;;;19.50;74.63
75594;BME280;64176;49.156;7.810;2023-08-01T10:00:14;97897.59;;;19.51;71.48
75594;BME280;64176;49.156;7.810;2023-08-01T10:02:59;97898.84;;;19.77;70.00
75594;BME280;64176;49.156;7.810;2023-08-01T10:05:46;97911.84;;;19.78;67.79
75594;BME280;64176;49.156;7.810;2023-08-01T10:08:30;97889.19;;;19.27;67.29
75594;BME280;64176;49.156;7.810;2023-08-01T10:11:21;97904.03;;;19.61;68.14
75594;BME280;64176;49.156;7.810;2023-08-01T10:14:06;97916.06;;;19.65;67.71
75594;BME280;64176;49.156;7.810;2023-08-01T10:16:51;97917.78;;;19.82;64.54
75594;BME280;64176;49.156;7.810;2023-08-01T10:19:36;97923.09;;;19.65;64.76
75594;BME280;64176;49.156;7.810;2023-08-01T10:22:21;97905.41;;;19.68;65.37
75594;BME280;64176;49.156;7.810;2023-08-01T10:25:08;97912.91;;;19.58;64.19
75594;BME280;64176;49.156;7.810;2023-08-01T10:28:02;97912.34;;;19.35;65.94
75594;BME280;64176;49.156;7.810;2023-08-01T10:30:46;97916.22;;;19.27;64.98
75594;BME280;64176;49.156;7.810;2023-08-01T10:33:33;97918.81;;;19.45;65.95
75594;BME280;64176;49.156;7.810;2023-08-01T10:36:19;97913.88;;;19.73;65.62
75594;BME280;64176;49.156;7.810;2023-08-01T10:39:04;97910.50;;;19.71;63.75
75594;BME280;64176;49.156;7.810;2023-08-01T10:41:56;97909.22;;;19.78;63.34
75594;BME280;64176;49.156;7.810;2023-08-01T10:44:45;97917.00;;;19.64;63.78
75594;BME280;64176;49.156;7.810;2023-08-01T10:47:29;97925.41;;;19.53;63.00
75594;BME280;64176;49.156;7.810;2023-08-01T10:50:16;97910.31;;;20.07;62.11
75594;BME280;64176;49.156;7.810;2023-08-01T10:53:08;97908.34;;;20.26;61.71
75594;BME280;64176;49.156;7.810;2023-08-01T10:55:53;97908.63;;;19.73;59.01
75594;BME280;64176;49.156;7.810;2023-08-01T10:58:40;97922.28;;;20.11;60.26
75594;BME280;64176;49.156;7.810;2023-08-01T11:01:26;97921.31;;;20.29;60.98
75594;BME280;64176;49.156;7.810;2023-08-01T11:04:18;97912.19;;;20.52;58.45
75594;BME280;64176;49.156;7.810;2023-08-01T11:07:04;97919.16;;;20.53;59.01
75594;BME280;64176;49.156;7.810;2023-08-01T11:09:48;97918.09;;;20.71;57.62
75594;BME280;64176;49.156;7.810;2023-08-01T11:12:37;97918.31;;;20.83;57.35
75594;BME280;64176;49.156;7.810;2023-08-01T11:15:25;97926.81;;;21.18;58.60
75594;BME280;64176;49.156;7.810;2023-08-01T11:18:09;97930.94;;;21.22;58.04
75594;BME280;64176;49.156;7.810;2023-08-01T11:20:53;97923.56;;;21.28;57.21
75594;BME280;64176;49.156;7.810;2023-08-01T11:23:37;97911.78;;;20.90;57.50
75594;BME280;64176;49.156;7.810;2023-08-01T11:26:22;97917.69;;;21.09;55.69
75594;BME280;64176;49.156;7.810;2023-08-01T11:29:06;97925.13;;;21.01;56.07
75594;BME280;64176;49.156;7.810;2023-08-01T11:31:55;97925.47;;;21.40;56.06
75594;BME280;64176;49.156;7.810;2023-08-01T11:34:39;97927.06;;;21.43;55.33
75594;BME280;64176;49.156;7.810;2023-08-01T11:37:26;97926.97;;;21.44;55.59
75594;BME280;64176;49.156;7.810;2023-08-01T11:40:10;97924.44;;;21.57;53.94
75594;BME280;64176;49.156;7.810;2023-08-01T11:42:56;97923.50;;;21.58;53.12
75594;BME280;64176;49.156;7.810;2023-08-01T11:45:55;97942.97;;;21.84;53.25
75594;BME280;64176;49.156;7.810;2023-08-01T11:48:44;97944.09;;;21.66;51.13
75594;BME280;64176;49.156;7.810;2023-08-01T11:51:30;97930.69;;;21.99;51.22
75594;BME280;64176;49.156;7.810;2023-08-01T11:54:14;97937.72;;;21.26;50.79
75594;BME280;64176;49.156;7.810;2023-08-01T11:57:04;97936.22;;;21.22;51.43
75594;BME280;64176;49.156;7.810;2023-08-01T11:59:57;97941.41;;;21.37;52.85
75594;BME280;64176;49.156;7.810;2023-08-01T12:02:41;97936.47;;;21.17;53.90
75594;BME280;64176;49.156;7.810;2023-08-01T12:05:25;97929.28;;;21.35;53.45
75594;BME280;64176;49.156;7.810;2023-08-01T12:08:10;97940.69;;;21.50;52.55
75594;BME280;64176;49.156;7.810;2023-08-01T12:10:55;97933.06;;;21.45;53.46
75594;BME280;64176;49.156;7.810;2023-08-01T12:13:39;97935.91;;;21.56;53.59
75594;BME280;64176;49.156;7.810;2023-08-01T12:16:23;97939.03;;;21.91;52.56
75594;BME280;64176;49.156;7.810;2023-08-01T12:19:08;97921.94;;;22.12;50.99
75594;BME280;64176;49.156;7.810;2023-08-01T12:21:55;97925.84;;;22.34;50.92
75594;BME280;64176;49.156;7.810;2023-08-01T12:24:39;97939.16;;;22.18;51.79
75594;BME280;64176;49.156;7.810;2023-08-01T12:27:22;97947.50;;;21.96;51.38
75594;BME280;64176;49.156;7.810;2023-08-01T12:30:09;97929.16;;;21.80;51.95
75594;BME280;64176;49.156;7.810;2023-08-01T12:32:54;97929.75;;;22.14;52.59
75594;BME280;64176;49.156;7.810;2023-08-01T12:35:41;97940.00;;;22.04;50.14
75594;BME280;64176;49.156;7.810;2023-08-01T12:38:27;97942.72;;;22.31;51.50
75594;BME280;64176;49.156;7.810;2023-08-01T12:41:12;97947.56;;;21.80;50.48
75594;BME280;64176;49.156;7.810;2023-08-01T12:43:56;97949.63;;;21.90;51.77
75594;BME280;64176;49.156;7.810;2023-08-01T12:46:40;97958.56;;;21.87;51.21
75594;BME280;64176;49.156;7.810;2023-08-01T12:49:27;97948.69;;;21.76;51.29
75594;BME280;64176;49.156;7.810;2023-08-01T12:52:22;97942.69;;;21.89;50.53
75594;BME280;64176;49.156;7.810;2023-08-01T12:55:09;97939.03;;;21.91;50.68
75594;BME280;64176;49.156;7.810;2023-08-01T12:57:53;97936.88;;;21.84;51.90
75594;BME280;64176;49.156;7.810;2023-08-01T13:00:37;97935.34;;;22.36;51.51
75594;BME280;64176;49.156;7.810;2023-08-01T13:03:21;97928.88;;;22.42;51.60
75594;BME280;64176;49.156;7.810;2023-08-01T13:06:05;97926.56;;;22.09;49.73
75594;BME280;64176;49.156;7.810;2023-08-01T13:08:49;97928.69;;;22.31;50.25
75594;BME280;64176;49.156;7.810;2023-08-01T13:11:35;97932.63;;;22.65;49.59
75594;BME280;64176;49.156;7.810;2023-08-01T13:14:19;97935.94;;;22.27;49.63
75594;BME280;64176;49.156;7.810;2023-08-01T13:17:04;97926.78;;;22.33;49.12
75594;BME280;64176;49.156;7.810;2023-08-01T13:19:48;97919.28;;;22.27;49.39
75594;BME280;64176;49.156;7.810;2023-08-01T13:22:32;97940.19;;;22.57;50.37
75594;BME280;64176;49.156;7.810;2023-08-01T13:25:16;97921.84;;;22.28;48.10
75594;BME280;64176;49.156;7.810;2023-08-01T13:30:44;97921.41;;;22.48;48.49
75594;BME280;64176;49.156;7.810;2023-08-01T13:33:28;97941.03;;;22.16;48.85
75594;BME280;64176;49.156;7.810;2023-08-01T13:36:13;97939.22;;;22.31;47.68
75594;BME280;64176;49.156;7.810;2023-08-01T13:38:57;97934.06;;;22.15;48.10
75594;BME280;64176;49.156;7.810;2023-08-01T13:41:41;97930.03;;;21.95;47.95
75594;BME280;64176;49.156;7.810;2023-08-01T13:44:25;97933.88;;;21.75;49.25
75594;BME280;64176;49.156;7.810;2023-08-01T13:47:10;97930.03;;;22.09;48.75
75594;BME280;64176;49.156;7.810;2023-08-01T13:49:54;97928.97;;;22.40;49.04
75594;BME280;64176;49.156;7.810;2023-08-01T13:52:38;97944.38;;;22.73;49.16
75594;BME280;64176;49.156;7.810;2023-08-01T13:55:23;97939.13;;;22.73;48.96
75594;BME280;64176;49.156;7.810;2023-08-01T13:58:06;97927.06;;;22.69;47.72
75594;BME280;64176;49.156;7.810;2023-08-01T14:00:53;97931.97;;;22.34;48.04
75594;BME280;64176;49.156;7.810;2023-08-01T14:03:38;97930.06;;;22.50;48.50
75594;BME280;64176;49.156;7.810;2023-08-01T14:06:23;97937.28;;;22.20;47.74
75594;BME280;64176;49.156;7.810;2023-08-01T14:09:10;97943.47;;;22.19;48.94
75594;BME280;64176;49.156;7.810;2023-08-01T14:11:56;97935.19;;;22.11;47.62
75594;BME280;64176;49.156;7.810;2023-08-01T14:14:40;97952.28;;;22.32;47.69
75594;BME280;64176;49.156;7.810;2023-08-01T14:17:24;97942.38;;;22.50;48.21
75594;BME280;64176;49.156;7.810;2023-08-01T14:20:08;97956.50;;;22.49;47.81
75594;BME280;64176;49.156;7.810;2023-08-01T14:22:53;97953.44;;;22.28;47.19
75594;BME280;64176;49.156;7.810;2023-08-01T14:25:39;97950.31;;;22.36;45.75
75594;BME280;64176;49.156;7.810;2023-08-01T14:28:24;97942.84;;;22.42;44.57
75594;BME280;64176;49.156;7.810;2023-08-01T14:31:07;97957.19;;;22.65;43.93